Time;durP1;ratioP1;P1;durP2;ratioP2;P2;SDS_P1;SDS_P2;PMS_P1;PMS_P2;Temp;Humidity;BMP_temperature;BMP_pressure;BME280_temperature;BME280_humidity;BME280_pressure;Samples;Min_cycle;Max_cycle;Signal;HPM_P1;HPM_P2
2023/12/24 00:00:16;;;;;;;2.25;0.70;;;;;;;9.43;92.61;100280.72;7386887;19;20043;-62
2023/12/24 00:02:44;;;;;;;2.30;0.70;;;;;;;9.41;92.64;100269.41;7398576;19;20029;-61
2023/12/24 00:05:12;;;;;;;4.15;0.80;;;;;;;9.41;92.67;100276.50;7397663;19;20022;-61
2023/12/24 00:07:40;;;;;;;3.20;0.57;;;;;;;9.41;92.86;100279.97;7398622;19;20022;-60
2023/12/24 00:10:08;;;;;;;1.52;0.50;;;;;;;9.39;92.69;100267.88;7393549;19;20457;-61
2023/12/24 00:12:37;;;;;;;2.75;0.60;;;;;;;9.38;92.51;100274.91;7397627;19;20050;-61
2023/12/24 00:15:07;;;;;;;1.92;0.70;;;;;;;9.41;92.77;100274.69;7397743;19;20074;-61
2023/12/24 00:17:35;;;;;;;3.03;0.70;;;;;;;9.40;92.05;100270.38;7397413;19;20015;-63
2023/12/24 00:20:04;;;;;;;3.22;1.00;;;;;;;9.48;92.08;100275.06;7393385;19;20030;-62
2023/12/24 00:22:32;;;;;;;2.75;0.70;;;;;;;9.45;92.05;100264.72;7397188;19;20046;-61
2023/12/24 00:25:01;;;;;;;1.45;0.90;;;;;;;9.48;92.12;100275.91;7396873;19;20046;-61
2023/12/24 00:27:29;;;;;;;3.88;1.10;;;;;;;9.48;92.08;100267.97;7396667;19;20380;-61
2023/12/24 00:29:57;;;;;;;2.08;0.98;;;;;;;9.47;92.09;100284.81;7393926;19;20018;-61
2023/12/24 00:32:25;;;;;;;1.48;0.73;;;;;;;9.47;92.12;100284.81;7394354;19;20384;-61
2023/12/24 00:34:53;;;;;;;2.88;1.02;;;;;;;9.49;92.00;100282.03;7396608;19;20018;-61
2023/12/24 00:37:21;;;;;;;2.40;0.75;;;;;;;9.48;91.88;100275.91;7396513;19;20114;-61
2023/12/24 00:39:49;;;;;;;3.25;0.80;;;;;;;9.52;91.60;100287.94;7393681;19;20022;-61
2023/12/24 00:42:17;;;;;;;3.80;1.13;;;;;;;9.49;92.03;100285.50;7396373;19;20088;-61
2023/12/24 00:44:45;;;;;;;3.72;0.93;;;;;;;9.47;92.01;100284.81;7396562;19;20014;-60
2023/12/24 00:47:12;;;;;;;1.30;0.80;;;;;;;9.49;92.01;100289.97;7395764;19;20021;-60
2023/12/24 00:49:40;;;;;;;2.67;0.95;;;;;;;9.41;91.90;100284.44;7393541;19;20035;-60
2023/12/24 00:52:08;;;;;;;3.50;1.10;;;;;;;9.45;92.24;100284.06;7395902;19;20035;-61
2023/12/24 00:54:36;;;;;;;2.78;1.10;;;;;;;9.43;92.67;100278.06;7393483;19;20334;-61
2023/12/24 00:57:04;;;;;;;3.50;1.20;;;;;;;9.42;92.76;100259.66;7395902;19;20022;-61
2023/12/24 00:59:32;;;;;;;3.70;1.00;;;;;;;9.47;92.64;100278.69;7391043;19;20018;-63
2023/12/24 01:02:00;;;;;;;3.08;0.90;;;;;;;9.49;92.51;100271.47;7394289;19;20019;-61
2023/12/24 01:04:28;;;;;;;2.67;1.20;;;;;;;9.48;92.51;100275.91;7395335;19;20051;-60
2023/12/24 01:06:57;;;;;;;5.03;1.27;;;;;;;9.50;92.53;100267.84;7394228;19;20475;-60
2023/12/24 01:09:24;;;;;;;4.13;1.08;;;;;;;9.50;92.45;100268.72;7393333;19;20023;-61
2023/12/24 01:11:53;;;;;;;2.83;1.05;;;;;;;9.51;92.41;100261.63;7395547;19;20025;-61
2023/12/24 01:14:20;;;;;;;2.22;1.02;;;;;;;9.50;92.24;100260.78;7390795;19;20043;-61
2023/12/24 01:16:49;;;;;;;2.53;1.00;;;;;;;9.49;92.53;100269.66;7393460;19;20081;-61
2023/12/24 01:19:16;;;;;;;4.78;1.10;;;;;;;9.51;92.37;100267.75;7393409;19;20470;-61
2023/12/24 01:21:44;;;;;;;2.47;1.10;;;;;;;9.51;92.27;100275.69;7395492;19;20367;-61
2023/12/24 01:24:12;;;;;;;4.25;1.00;;;;;;;9.51;92.50;100272.19;7395025;19;20026;-61
2023/12/24 01:26:40;;;;;;;2.08;0.80;;;;;;;9.55;92.35;100264.88;7393343;19;20014;-61
2023/12/24 01:29:08;;;;;;;3.17;0.90;;;;;;;9.52;92.57;100264.13;7393759;19;20019;-59
2023/12/24 01:31:37;;;;;;;2.45;0.70;;;;;;;9.54;92.58;100269.31;7393397;19;20421;-60
2023/12/24 01:34:05;;;;;;;3.13;0.85;;;;;;;9.48;92.48;100252.13;7393613;19;20023;-59
2023/12/24 01:36:33;;;;;;;2.85;0.70;;;;;;;9.51;92.69;100269.56;7394351;19;20021;-60
2023/12/24 01:39:01;;;;;;;4.00;0.90;;;;;;;9.53;92.69;100264.97;7393576;19;20018;-60
2023/12/24 01:41:31;;;;;;;2.65;1.00;;;;;;;9.52;92.58;100266.78;7394698;19;20019;-59
2023/12/24 01:43:59;;;;;;;3.55;1.00;;;;;;;9.50;92.64;100260.78;7395267;19;20018;-62
2023/12/24 01:46:27;;;;;;;3.53;1.20;;;;;;;9.46;92.61;100258.47;7394499;19;20019;-59
2023/12/24 01:48:56;;;;;;;4.00;1.00;;;;;;;9.43;92.92;100253.44;7393256;19;20026;-59
2023/12/24 01:51:30;;;;;;;3.33;1.00;;;;;;;9.43;92.53;100241.06;7392732;19;20560;-60
2023/12/24 01:53:58;;;;;;;2.72;1.20;;;;;;;9.51;92.51;100259.81;7393007;19;20026;-59
2023/12/24 01:56:31;;;;;;;3.95;1.23;;;;;;;9.56;92.21;100242.75;7394727;19;20027;-62
2023/12/24 01:58:59;;;;;;;2.80;1.23;;;;;;;9.49;92.69;100239.75;7392539;19;20031;-62
2023/12/24 02:01:28;;;;;;;4.20;1.13;;;;;;;9.48;92.60;100251.28;7393860;19;20022;-62
2023/12/24 02:03:56;;;;;;;4.68;1.40;;;;;;;9.50;92.45;100247.56;7393643;19;20014;-60
2023/12/24 02:06:25;;;;;;;1.83;0.80;;;;;;;9.46;92.67;100240.84;7393460;19;20386;-64
2023/12/24 02:08:55;;;;;;;3.33;1.02;;;;;;;9.55;92.36;100249.00;7392700;19;20018;-60
2023/12/24 02:11:23;;;;;;;3.78;1.10;;;;;;;9.59;92.31;100245.16;7392227;19;20050;-60
2023/12/24 02:13:51;;;;;;;3.63;1.10;;;;;;;9.54;92.13;100240.25;7392539;19;20014;-60
2023/12/24 02:16:21;;;;;;;2.65;0.98;;;;;;;9.57;92.20;100239.97;7393139;19;20019;-60
2023/12/24 02:18:49;;;;;;;4.20;1.10;;;;;;;9.59;92.20;100234.59;7392196;19;20029;-60
2023/12/24 02:21:17;;;;;;;3.55;1.20;;;;;;;9.57;92.23;100225.94;7393354;19;20059;-60
2023/12/24 02:23:45;;;;;;;4.07;1.30;;;;;;;9.64;91.92;100211.28;7392399;19;20023;-60
2023/12/24 02:26:30;;;;;;;2.55;0.90;;;;;;;9.64;91.77;100219.22;7392114;19;20380;-60
2023/12/24 02:29:32;;;;;;;1.95;1.13;;;;;;;9.56;92.30;100219.81;7392013;19;20019;-60
2023/12/24 02:32:20;;;;;;;4.45;1.13;;;;;;;9.53;92.35;100223.53;7391324;19;20376;-60
2023/12/24 02:34:49;;;;;;;3.13;1.33;;;;;;;9.50;92.71;100226.44;7391662;19;20094;-60
2023/12/24 02:37:17;;;;;;;2.55;0.90;;;;;;;9.53;92.44;100235.91;7393268;19;20011;-60
2023/12/24 02:39:45;;;;;;;3.45;1.00;;;;;;;9.57;92.28;100236.50;7389157;19;20074;-60
2023/12/24 02:42:13;;;;;;;4.50;1.10;;;;;;;9.59;92.31;100224.88;7392988;19;20344;-59
2023/12/24 02:44:42;;;;;;;3.78;1.00;;;;;;;9.60;92.06;100221.25;7392877;19;20014;-60
2023/12/24 02:47:10;;;;;;;3.40;1.08;;;;;;;9.61;92.11;100222.09;7392682;19;20026;-60
2023/12/24 02:49:38;;;;;;;4.18;1.15;;;;;;;9.64;92.26;100221.84;7391005;19;20025;-60
2023/12/24 02:52:06;;;;;;;2.40;1.00;;;;;;;9.61;92.06;100215.00;7392704;19;20527;-60
2023/12/24 02:54:33;;;;;;;4.13;1.15;;;;;;;9.56;92.47;100216.31;7390894;19;20042;-60
2023/12/24 02:57:01;;;;;;;2.92;1.20;;;;;;;9.59;92.43;100210.81;7391000;19;20018;-60
2023/12/24 02:59:29;;;;;;;3.35;1.20;;;;;;;9.59;92.34;100213.44;7387363;19;20631;-59
2023/12/24 03:01:57;;;;;;;2.92;1.00;;;;;;;9.58;92.52;100209.09;7390233;19;20048;-60
2023/12/24 03:04:25;;;;;;;3.38;1.20;;;;;;;9.52;92.71;100213.09;7391476;19;20010;-60
2023/12/24 03:06:53;;;;;;;2.80;1.15;;;;;;;9.58;92.51;100214.38;7391627;19;20383;-61
2023/12/24 03:09:21;;;;;;;3.90;0.95;;;;;;;9.55;92.71;100204.91;7388812;19;20047;-61
2023/12/24 03:11:50;;;;;;;5.40;1.00;;;;;;;9.58;92.60;100203.81;7391588;19;20025;-61
2023/12/24 03:14:17;;;;;;;3.65;1.10;;;;;;;9.64;92.51;100214.75;7390249;19;20518;-61
2023/12/24 03:16:45;;;;;;;2.05;0.80;;;;;;;9.63;92.40;100189.28;7391994;19;20025;-61
2023/12/24 03:19:13;;;;;;;2.50;1.00;;;;;;;9.55;92.44;100207.56;7389550;19;20035;-61
2023/12/24 03:21:41;;;;;;;1.40;0.82;;;;;;;9.58;92.54;100191.47;7391321;19;20022;-61
2023/12/24 03:24:09;;;;;;;1.60;0.60;;;;;;;9.59;92.23;100190.50;7391998;19;20018;-61
2023/12/24 03:26:37;;;;;;;2.25;0.60;;;;;;;9.52;92.49;100184.84;7391516;19;20026;-61
2023/12/24 03:29:05;;;;;;;3.40;0.90;;;;;;;9.58;92.62;100191.47;7389675;19;20452;-61
2023/12/24 03:31:33;;;;;;;2.83;0.80;;;;;;;9.57;92.68;100187.13;7391356;19;20355;-61
2023/12/24 03:34:01;;;;;;;1.85;0.88;;;;;;;9.63;92.69;100193.75;7390440;19;20022;-61
2023/12/24 03:36:29;;;;;;;1.35;0.70;;;;;;;9.68;92.46;100188.91;7390610;19;20022;-61
2023/12/24 03:38:57;;;;;;;1.75;0.70;;;;;;;9.67;92.67;100182.78;7389480;19;20093;-61
2023/12/24 03:41:25;;;;;;;0.88;0.60;;;;;;;9.63;92.76;100191.94;7390783;19;20046;-61
2023/12/24 03:43:53;;;;;;;2.17;0.93;;;;;;;9.62;92.70;100189.44;7390905;19;20680;-61
2023/12/24 03:46:21;;;;;;;1.55;0.70;;;;;;;9.67;92.74;100195.19;7390405;19;20344;-61
2023/12/24 03:48:49;;;;;;;1.13;0.70;;;;;;;9.59;93.00;100187.03;7389320;19;20022;-61
2023/12/24 03:51:18;;;;;;;2.30;0.90;;;;;;;9.55;92.72;100180.28;7389156;19;20385;-62
2023/12/24 03:53:46;;;;;;;3.75;0.60;;;;;;;9.61;93.02;100187.72;7389905;19;20411;-61
2023/12/24 03:56:14;;;;;;;1.67;0.75;;;;;;;9.55;93.10;100175.84;7390704;19;20375;-61
2023/12/24 03:58:42;;;;;;;2.50;0.70;;;;;;;9.60;93.05;100175.47;7388791;19;20483;-60
2023/12/24 04:01:13;;;;;;;2.10;0.90;;;;;;;9.60;92.89;100170.19;7390052;19;20094;-61
2023/12/24 04:03:41;;;;;;;2.47;0.70;;;;;;;9.63;93.10;100165.50;7390368;19;20027;-61
2023/12/24 04:06:13;;;;;;;1.05;0.70;;;;;;;9.63;92.74;100173.44;7390455;19;20019;-61
2023/12/24 04:08:41;;;;;;;1.15;0.60;;;;;;;9.53;92.72;100156.59;7389427;19;20018;-61
2023/12/24 04:11:13;;;;;;;1.15;0.70;;;;;;;9.59;92.95;100171.16;7389545;19;20025;-61
2023/12/24 04:13:41;;;;;;;1.88;0.90;;;;;;;9.60;93.13;100167.53;7389743;19;20018;-61
2023/12/24 04:16:09;;;;;;;2.03;0.70;;;;;;;9.65;93.00;100163.56;7389916;19;20036;-61
2023/12/24 04:18:37;;;;;;;1.75;0.73;;;;;;;9.61;93.37;100169.22;7388346;19;20089;-61
2023/12/24 04:21:08;;;;;;;1.58;0.60;;;;;;;9.60;93.11;100167.53;7389637;19;20022;-61
2023/12/24 04:23:36;;;;;;;3.03;0.77;;;;;;;9.60;93.24;100170.19;7388510;19;20015;-61
2023/12/24 04:26:04;;;;;;;0.80;0.50;;;;;;;9.54;93.22;100158.31;7389254;19;20018;-61
2023/12/24 04:28:32;;;;;;;2.05;0.60;;;;;;;9.62;93.34;100157.69;7388688;19;20019;-61
2023/12/24 04:31:00;;;;;;;2.20;0.68;;;;;;;9.62;92.81;100149.78;7389506;19;20035;-61
2023/12/24 04:33:29;;;;;;;2.53;0.90;;;;;;;9.62;92.98;100144.47;7389683;19;20443;-61
2023/12/24 04:35:57;;;;;;;1.98;0.65;;;;;;;9.65;93.00;100152.16;7387154;19;20025;-61
2023/12/24 04:38:25;;;;;;;0.98;0.50;;;;;;;9.64;92.87;100153.13;7388132;19;20027;-61
2023/12/24 04:40:53;;;;;;;0.60;0.50;;;;;;;9.66;92.97;100138.00;7389680;19;20033;-61
2023/12/24 04:43:21;;;;;;;1.17;0.60;;;;;;;9.67;92.73;100137.03;7387959;19;20026;-61
2023/12/24 04:45:49;;;;;;;1.02;0.57;;;;;;;9.61;93.19;100132.22;7389135;19;20015;-61
2023/12/24 04:48:17;;;;;;;1.08;0.50;;;;;;;9.64;93.16;100129.31;7391669;19;20017;-61
2023/12/24 04:50:45;;;;;;;1.42;0.60;;;;;;;9.68;92.82;100122.81;7394738;19;20011;-61
2023/12/24 04:53:13;;;;;;;0.68;0.43;;;;;;;9.66;92.89;100124.78;7396566;19;20033;-61
2023/12/24 04:55:41;;;;;;;1.40;0.55;;;;;;;9.71;92.94;100126.06;7394295;19;20017;-61
2023/12/24 04:58:09;;;;;;;0.82;0.70;;;;;;;9.71;92.71;100125.22;7395440;19;20376;-61
2023/12/24 05:00:37;;;;;;;2.53;0.60;;;;;;;9.69;92.99;100116.56;7395725;19;20105;-61
2023/12/24 05:03:05;;;;;;;0.95;0.68;;;;;;;9.62;92.86;100107.47;7396037;19;20363;-61
2023/12/24 05:05:33;;;;;;;1.45;0.60;;;;;;;9.66;92.68;100114.19;7395421;19;20017;-61
2023/12/24 05:08:02;;;;;;;0.77;0.55;;;;;;;9.67;93.31;100100.00;7395792;19;20026;-61
2023/12/24 05:10:30;;;;;;;0.88;0.60;;;;;;;9.69;93.13;100098.06;7392239;19;20035;-61
2023/12/24 05:12:57;;;;;;;0.93;0.50;;;;;;;9.74;92.79;100109.13;7395712;19;20023;-61
2023/12/24 05:15:26;;;;;;;0.63;0.52;;;;;;;9.77;92.19;100101.78;7393616;19;20487;-61
2023/12/24 05:17:56;;;;;;;0.82;0.50;;;;;;;9.67;92.68;100106.13;7394840;19;20018;-61
2023/12/24 05:20:24;;;;;;;1.80;0.60;;;;;;;9.61;93.00;100097.84;7391691;19;20022;-61
2023/12/24 05:22:52;;;;;;;1.15;0.63;;;;;;;9.69;92.89;100108.63;7395038;19;20015;-61
2023/12/24 05:25:22;;;;;;;0.82;0.50;;;;;;;9.71;92.98;100107.56;7395165;19;20011;-61
2023/12/24 05:27:50;;;;;;;1.98;0.60;;;;;;;9.68;92.90;100097.22;7394998;19;20022;-61
2023/12/24 05:30:18;;;;;;;0.85;0.60;;;;;;;9.77;92.71;100106.25;7392360;19;20026;-61
2023/12/24 05:32:46;;;;;;;0.82;0.52;;;;;;;9.73;92.98;100110.94;7394816;19;20025;-61
2023/12/24 05:35:14;;;;;;;1.73;0.98;;;;;;;9.80;92.72;100092.75;7397614;19;20026;-61
2023/12/24 05:37:41;;;;;;;4.15;1.98;;;;;;;9.77;92.58;100107.06;7395145;19;20026;-61
2023/12/24 05:40:10;;;;;;;2.78;1.50;;;;;;;9.75;92.83;100098.41;7391836;19;20039;-61
2023/12/24 05:42:37;;;;;;;1.95;1.08;;;;;;;9.77;92.82;100100.94;7394352;19;20360;-61
2023/12/24 05:45:10;;;;;;;3.75;1.30;;;;;;;9.83;92.90;100104.88;7394514;19;20038;-61
2023/12/24 05:47:38;;;;;;;2.15;0.90;;;;;;;9.76;93.02;100088.69;7394208;19;20365;-61
2023/12/24 05:50:08;;;;;;;1.13;0.80;;;;;;;9.83;93.04;100099.59;7389693;19;20050;-61
2023/12/24 05:52:37;;;;;;;1.88;0.70;;;;;;;9.75;92.99;100097.56;7392644;19;20014;-61
2023/12/24 05:55:06;;;;;;;1.50;0.70;;;;;;;9.74;93.36;100085.34;7393361;19;20486;-61
2023/12/24 05:57:36;;;;;;;1.13;0.70;;;;;;;9.77;93.18;100078.00;7394235;19;20494;-61
2023/12/24 06:00:05;;;;;;;0.77;0.70;;;;;;;9.72;93.08;100077.50;7389691;19;20019;-61
2023/12/24 06:02:33;;;;;;;0.88;0.50;;;;;;;9.77;93.45;100083.28;7393776;19;20032;-61
2023/12/24 06:05:01;;;;;;;0.70;0.60;;;;;;;9.69;93.45;100074.28;7393929;19;20023;-61
2023/12/24 06:07:29;;;;;;;1.05;0.70;;;;;;;9.81;93.43;100085.69;7393884;19;20042;-61
2023/12/24 06:09:57;;;;;;;1.77;0.65;;;;;;;9.77;93.34;100078.00;7391236;19;20018;-61
2023/12/24 06:12:25;;;;;;;0.88;0.68;;;;;;;9.80;93.20;100076.88;7393374;19;20024;-61
2023/12/24 06:14:53;;;;;;;1.45;0.50;;;;;;;9.80;93.39;100074.25;7392810;19;20014;-61
2023/12/24 06:17:21;;;;;;;0.73;0.50;;;;;;;9.84;93.49;100075.66;7392551;19;20655;-61
2023/12/24 06:19:49;;;;;;;2.35;0.50;;;;;;;9.82;93.70;100069.69;7391395;19;20077;-61
2023/12/24 06:22:17;;;;;;;1.27;0.50;;;;;;;9.85;93.56;100072.06;7392851;19;20040;-61
2023/12/24 06:24:44;;;;;;;0.43;0.43;;;;;;;9.84;93.42;100067.72;7392200;19;20011;-61
2023/12/24 06:27:12;;;;;;;1.08;0.45;;;;;;;9.88;93.48;100063.03;7392581;19;20010;-61
2023/12/24 06:29:40;;;;;;;0.60;0.43;;;;;;;9.80;93.44;100060.19;7391097;19;20018;-60
2023/12/24 06:32:08;;;;;;;0.60;0.50;;;;;;;9.82;93.81;100064.38;7392790;19;20042;-61
2023/12/24 06:34:36;;;;;;;0.43;0.40;;;;;;;9.81;93.86;100054.78;7391507;19;20018;-61
2023/12/24 06:37:04;;;;;;;1.45;0.50;;;;;;;9.87;93.69;100053.44;7392233;19;20025;-61
2023/12/24 06:39:31;;;;;;;0.60;0.50;;;;;;;9.89;93.65;100047.06;7389127;19;20026;-61
2023/12/24 06:41:59;;;;;;;0.52;0.30;;;;;;;9.86;93.38;100041.19;7392411;19;20021;-61
2023/12/24 06:44:28;;;;;;;0.77;0.47;;;;;;;9.83;93.85;100036.13;7392446;19;20437;-61
2023/12/24 06:46:56;;;;;;;0.68;0.40;;;;;;;9.88;93.84;100045.38;7392281;19;20018;-61
2023/12/24 06:49:23;;;;;;;0.30;0.30;;;;;;;9.89;93.74;100040.94;7390680;19;20038;-61
2023/12/24 06:51:51;;;;;;;0.85;0.40;;;;;;;9.88;93.78;100040.09;7390917;19;20038;-61
2023/12/24 06:54:20;;;;;;;1.70;0.45;;;;;;;9.95;93.76;100038.59;7392359;19;20024;-60
2023/12/24 06:56:48;;;;;;;0.45;0.40;;;;;;;9.90;93.74;100030.22;7392111;19;20353;-62
2023/12/24 06:59:16;;;;;;;0.80;0.50;;;;;;;9.90;93.80;100026.75;7390505;19;20018;-61
2023/12/24 07:01:44;;;;;;;0.40;0.40;;;;;;;9.95;93.63;100030.66;7391836;19;20040;-61
2023/12/24 07:04:12;;;;;;;0.55;0.50;;;;;;;9.98;93.52;100030.41;7391794;19;20025;-61
2023/12/24 07:06:39;;;;;;;1.48;0.40;;;;;;;9.93;93.66;100037.91;7391033;19;20018;-61
2023/12/24 07:09:07;;;;;;;0.60;0.47;;;;;;;9.93;93.91;100037.91;7391714;19;20025;-61
2023/12/24 07:11:35;;;;;;;0.40;0.40;;;;;;;9.98;93.73;100034.88;7390239;19;20420;-61
2023/12/24 07:14:03;;;;;;;0.60;0.60;;;;;;;9.90;93.94;100032.88;7392213;19;20396;-61
2023/12/24 07:16:31;;;;;;;0.93;0.60;;;;;;;9.87;94.50;100033.09;7390213;19;20015;-61
2023/12/24 07:19:02;;;;;;;0.50;0.50;;;;;;;9.91;94.31;100026.59;7390626;19;20022;-61
2023/12/24 07:21:30;;;;;;;0.75;0.60;;;;;;;9.91;94.59;100007.25;7391689;19;20007;-61
2023/12/24 07:23:58;;;;;;;0.60;0.47;;;;;;;9.95;94.51;100004.22;7391610;19;20022;-61
2023/12/24 07:26:26;;;;;;;0.80;0.70;;;;;;;9.97;94.46;100010.22;7391235;19;20015;-61
2023/12/24 07:28:54;;;;;;;0.73;0.70;;;;;;;10.01;94.16;100019.59;7390405;19;20360;-61
2023/12/24 07:31:21;;;;;;;3.00;0.90;;;;;;;9.98;94.03;100013.72;7390230;19;20606;-61
2023/12/24 07:33:49;;;;;;;1.85;0.60;;;;;;;10.03;94.06;100016.81;7391390;19;20078;-61
2023/12/24 07:36:17;;;;;;;0.80;0.60;;;;;;;10.05;94.23;100019.34;7389405;19;20015;-59
2023/12/24 07:38:45;;;;;;;0.70;0.63;;;;;;;10.07;94.19;100002.34;7389994;19;20388;-61
2023/12/24 07:41:14;;;;;;;1.05;0.70;;;;;;;10.04;94.55;100018.50;7389568;19;20015;-61
2023/12/24 07:43:42;;;;;;;0.52;0.52;;;;;;;10.01;94.36;100013.47;7390939;19;20597;-61
2023/12/24 07:46:09;;;;;;;0.50;0.50;;;;;;;10.02;94.48;100021.25;7389950;19;20405;-61
2023/12/24 07:48:37;;;;;;;0.52;0.50;;;;;;;10.09;94.07;100018.13;7389709;19;20090;-60
2023/12/24 07:51:05;;;;;;;1.30;0.55;;;;;;;10.06;94.30;100010.44;7390919;19;20014;-62
2023/12/24 07:53:33;;;;;;;1.42;0.57;;;;;;;10.07;94.50;100006.81;7390161;19;20308;-61
2023/12/24 07:56:01;;;;;;;0.60;0.60;;;;;;;10.06;94.48;99999.84;7389404;19;20046;-60
2023/12/24 07:58:29;;;;;;;0.50;0.50;;;;;;;10.06;94.58;100005.97;7389183;19;20038;-61
2023/12/24 08:00:57;;;;;;;1.30;0.77;;;;;;;10.12;94.45;100009.94;7389366;19;20063;-61
2023/12/24 08:03:25;;;;;;;0.82;0.60;;;;;;;10.12;94.65;100010.75;7390402;19;20018;-61
2023/12/24 08:05:53;;;;;;;0.60;0.60;;;;;;;10.13;94.75;100007.16;7390105;19;20498;-61
2023/12/24 08:08:21;;;;;;;0.80;0.70;;;;;;;10.19;94.61;100017.22;7389649;19;20038;-61
2023/12/24 08:10:49;;;;;;;0.60;0.60;;;;;;;10.13;94.61;100003.66;7389124;19;20092;-61
2023/12/24 08:13:17;;;;;;;0.77;0.77;;;;;;;10.24;94.46;100019.47;7388636;19;20058;-61
2023/12/24 08:15:45;;;;;;;0.90;0.80;;;;;;;10.26;94.22;100006.97;7389780;19;20046;-62
2023/12/24 08:18:13;;;;;;;2.22;1.00;;;;;;;10.24;94.40;99999.16;7387547;19;20413;-62
2023/12/24 08:20:42;;;;;;;1.25;0.80;;;;;;;10.30;94.47;100011.03;7389655;19;20019;-61
2023/12/24 08:23:10;;;;;;;2.20;1.27;;;;;;;10.25;94.55;100000.84;7392611;19;20018;-61
2023/12/24 08:25:38;;;;;;;3.47;1.88;;;;;;;10.30;94.72;99997.81;7397342;19;20014;-61
2023/12/24 08:28:06;;;;;;;0.80;0.73;;;;;;;10.26;94.47;99983.16;7397292;19;20021;-61
2023/12/24 08:30:34;;;;;;;1.33;1.02;;;;;;;10.30;94.77;100000.44;7396354;19;20029;-61
2023/12/24 08:33:02;;;;;;;0.80;0.80;;;;;;;10.36;94.86;100013.19;7397688;19;20569;-61
2023/12/24 08:35:32;;;;;;;2.50;1.65;;;;;;;10.33;95.08;99997.53;7396044;19;20025;-61
2023/12/24 08:37:59;;;;;;;1.05;1.00;;;;;;;10.37;94.75;99998.13;7396592;19;20050;-61
2023/12/24 08:40:28;;;;;;;1.05;0.70;;;;;;;10.32;95.03;99995.88;7393433;19;20010;-62
2023/12/24 08:42:56;;;;;;;0.85;0.80;;;;;;;10.38;94.90;100016.53;7396940;19;20026;-61
2023/12/24 08:45:24;;;;;;;2.10;0.90;;;;;;;10.38;95.10;100000.66;7394736;19;20022;-61
2023/12/24 08:47:52;;;;;;;1.58;1.00;;;;;;;10.38;95.24;99995.38;7397121;19;20025;-61
2023/12/24 08:50:21;;;;;;;1.00;0.90;;;;;;;10.40;94.99;100001.34;7393049;19;20038;-61
2023/12/24 08:52:49;;;;;;;2.97;0.93;;;;;;;10.44;95.18;100007.22;7396062;19;20050;-61
2023/12/24 08:55:18;;;;;;;1.15;0.95;;;;;;;10.46;94.99;100005.31;7396154;19;20022;-62
2023/12/24 08:57:46;;;;;;;1.23;1.00;;;;;;;10.42;95.32;99999.44;7395795;19;20011;-61
2023/12/24 09:00:14;;;;;;;1.40;1.00;;;;;;;10.41;95.67;99986.31;7393521;19;20029;-61
2023/12/24 09:02:42;;;;;;;0.98;0.88;;;;;;;10.43;95.72;99985.22;7396422;19;20097;-62
2023/12/24 09:05:13;;;;;;;1.10;1.00;;;;;;;10.49;95.26;99989.13;7395876;19;20026;-61
2023/12/24 09:07:41;;;;;;;1.75;1.05;;;;;;;10.52;95.43;99986.22;7394780;19;20025;-62
2023/12/24 09:10:09;;;;;;;1.67;1.08;;;;;;;10.56;95.37;99986.81;7392740;19;20039;-62
2023/12/24 09:12:36;;;;;;;1.10;0.90;;;;;;;10.55;95.42;99982.50;7395864;19;20050;-61
2023/12/24 09:15:05;;;;;;;1.70;1.02;;;;;;;10.60;95.29;99975.81;7395861;19;20123;-60
2023/12/24 09:17:32;;;;;;;1.52;1.00;;;;;;;10.59;95.27;99976.78;7393040;19;20026;-62
2023/12/24 09:20:00;;;;;;;1.27;1.17;;;;;;;10.64;95.46;99984.34;7393478;19;20043;-62
2023/12/24 09:22:33;;;;;;;0.80;0.80;;;;;;;10.65;95.29;99986.03;7395305;19;20014;-62
2023/12/24 09:25:01;;;;;;;1.52;0.93;;;;;;;10.70;95.40;99999.72;7395590;19;20085;-62
2023/12/24 09:27:29;;;;;;;1.30;1.00;;;;;;;10.66;95.20;99988.53;7395243;19;20033;-62
2023/12/24 09:29:57;;;;;;;1.40;1.00;;;;;;;10.73;95.13;100002.94;7392789;19;20372;-62
2023/12/24 09:32:25;;;;;;;0.95;0.90;;;;;;;10.74;95.20;100001.94;7394532;19;20025;-62
2023/12/24 09:34:53;;;;;;;1.10;1.00;;;;;;;10.71;95.22;100007.50;7394015;19;20090;-62
2023/12/24 09:37:20;;;;;;;1.35;1.00;;;;;;;10.73;95.38;100008.22;7392790;19;20110;-63
2023/12/24 09:39:48;;;;;;;1.05;0.90;;;;;;;10.78;95.26;99996.38;7393537;19;20045;-62
2023/12/24 09:42:17;;;;;;;1.67;1.17;;;;;;;10.82;95.00;99987.22;7394678;19;20018;-62
2023/12/24 09:44:45;;;;;;;1.52;1.00;;;;;;;10.84;95.01;99999.34;7394479;19;20096;-62
2023/12/24 09:47:13;;;;;;;2.50;1.20;;;;;;;10.82;95.34;99987.22;7394611;19;20018;-62
2023/12/24 09:49:41;;;;;;;2.40;1.02;;;;;;;10.87;95.40;100001.72;7392349;19;20019;-62
2023/12/24 09:52:09;;;;;;;2.95;1.40;;;;;;;10.94;95.09;100004.66;7394035;19;20026;-62
2023/12/24 09:54:37;;;;;;;1.77;1.30;;;;;;;10.96;95.03;100002.75;7394856;19;20402;-62
2023/12/24 09:57:07;;;;;;;3.20;1.58;;;;;;;11.02;94.99;100006.66;7393034;19;20392;-62
2023/12/24 09:59:35;;;;;;;2.35;1.40;;;;;;;11.04;94.94;100002.91;7390499;19;20019;-62
2023/12/24 10:02:03;;;;;;;1.98;1.30;;;;;;;11.09;94.78;100007.78;7394597;19;20014;-62
2023/12/24 10:04:31;;;;;;;1.15;1.05;;;;;;;11.06;94.74;100008.06;7392839;19;20014;-62
2023/12/24 10:06:59;;;;;;;2.15;1.20;;;;;;;11.01;95.24;100007.63;7393934;19;20376;-62
2023/12/24 10:09:48;;;;;;;2.88;1.23;;;;;;;11.05;95.04;99998.44;7391743;19;20082;-61
2023/12/24 10:12:16;;;;;;;1.20;1.10;;;;;;;11.02;95.50;99983.63;7393398;19;20042;-62
2023/12/24 10:14:55;;;;;;;1.92;1.23;;;;;;;11.03;95.57;99981.81;7391252;19;20321;-62
2023/12/24 10:17:30;;;;;;;1.45;1.33;;;;;;;11.03;95.72;99979.19;7392193;19;20030;-62
2023/12/24 10:20:02;;;;;;;2.92;1.73;;;;;;;11.08;95.67;99975.16;7391106;19;20011;-62
2023/12/24 10:22:30;;;;;;;3.30;1.80;;;;;;;11.08;95.69;99975.16;7393385;19;20085;-61
2023/12/24 10:25:06;;;;;;;2.35;1.85;;;;;;;11.16;95.57;99977.13;7392883;19;20031;-62
2023/12/24 10:27:34;;;;;;;2.38;1.80;;;;;;;11.15;95.39;99967.50;7391541;19;20047;-61
2023/12/24 10:30:09;;;;;;;2.38;1.70;;;;;;;11.20;95.02;99958.16;7390599;19;20026;-62
2023/12/24 10:32:39;;;;;;;2.75;1.70;;;;;;;11.15;95.65;99959.56;7393062;19;20015;-62
2023/12/24 10:35:08;;;;;;;2.88;1.70;;;;;;;11.13;95.39;99956.19;7393094;19;20024;-62
2023/12/24 10:37:36;;;;;;;2.10;1.48;;;;;;;11.16;95.76;99943.50;7390671;19;20025;-62
2023/12/24 10:40:09;;;;;;;2.17;1.40;;;;;;;11.18;95.38;99946.00;7390728;19;20368;-62
2023/12/24 10:42:38;;;;;;;1.30;1.10;;;;;;;11.16;95.61;99946.16;7392489;19;20018;-61
2023/12/24 10:45:08;;;;;;;1.33;1.15;;;;;;;11.21;95.57;99929.84;7389055;19;20014;-62
2023/12/24 10:47:36;;;;;;;1.73;1.10;;;;;;;11.21;95.44;99929.84;7392099;19;20356;-61
2023/12/24 10:50:05;;;;;;;2.03;1.05;;;;;;;11.18;95.54;99938.06;7390575;19;20046;-61
2023/12/24 10:52:33;;;;;;;2.75;1.13;;;;;;;11.20;95.72;99938.78;7392571;19;20022;-62
2023/12/24 10:55:02;;;;;;;1.73;1.02;;;;;;;11.20;95.46;99939.63;7392017;19;20011;-62
2023/12/24 10:57:44;;;;;;;1.60;0.98;;;;;;;11.25;95.50;99941.84;7390850;19;20129;-62
2023/12/24 11:00:13;;;;;;;0.80;0.70;;;;;;;11.18;96.03;99928.34;7390209;19;20748;-61
2023/12/24 11:02:49;;;;;;;4.50;1.30;;;;;;;11.26;95.59;99948.00;7392402;19;20019;-61
2023/12/24 11:05:39;;;;;;;2.00;1.10;;;;;;;11.20;95.79;99952.03;7392378;19;20030;-62
2023/12/24 11:08:28;;;;;;;1.73;1.02;;;;;;;11.20;95.96;99944.09;7391908;19;20018;-61
2023/12/24 11:10:56;;;;;;;1.05;0.90;;;;;;;11.22;96.16;99937.69;7392248;19;20015;-62
2023/12/24 11:13:34;;;;;;;1.30;0.80;;;;;;;11.33;95.64;99923.47;7390418;19;20093;-61
2023/12/24 11:16:04;;;;;;;1.00;0.90;;;;;;;11.34;95.73;99916.34;7392073;19;20030;-62
2023/12/24 11:18:50;;;;;;;0.63;0.60;;;;;;;11.30;95.59;99923.75;7390747;19;20015;-59
2023/12/24 11:21:22;;;;;;;1.58;0.50;;;;;;;11.25;96.01;99904.75;7391622;19;20038;-61
2023/12/24 11:24:08;;;;;;;0.95;0.80;;;;;;;11.34;95.80;99919.00;7391644;19;20352;-63
2023/12/24 11:26:36;;;;;;;1.50;0.90;;;;;;;11.30;96.11;99913.13;7391713;19;20046;-63
2023/12/24 11:29:36;;;;;;;0.80;0.68;;;;;;;11.33;95.80;99912.88;7389774;19;20011;-63
2023/12/24 11:32:22;;;;;;;0.60;0.55;;;;;;;11.29;96.27;99905.31;7391178;19;20046;-62
2023/12/24 11:34:55;;;;;;;0.80;0.60;;;;;;;11.21;96.69;99895.41;7391692;19;20014;-62
2023/12/24 11:37:39;;;;;;;0.93;0.73;;;;;;;11.26;96.71;99885.25;7389710;19;20018;-61
2023/12/24 11:40:17;;;;;;;1.03;0.70;;;;;;;11.27;96.82;99901.97;7389655;19;20105;-61